createdAt,value
2023-04-07T00:02:18.803Z,101330.16
2023-04-07T00:07:21.692Z,101328.53
2023-04-07T00:12:25.582Z,101327.13
2023-04-07T00:17:27.875Z,101326.47
2023-04-07T00:22:30.789Z,101321.75
2023-04-07T00:27:33.155Z,101336.50
2023-04-07T00:32:36.525Z,101332.63
2023-04-07T00:37:39.133Z,101322.66
2023-04-07T00:42:42.130Z,101328.97
2023-04-07T00:47:45.755Z,101343.66
2023-04-07T00:52:48.985Z,101331.44
2023-04-07T00:57:54.120Z,101339.84
2023-04-07T01:03:05.542Z,101358.84
2023-04-07T01:08:21.012Z,101342.09
2023-04-07T01:13:31.720Z,101326.16
2023-04-07T01:18:47.951Z,101331.25
2023-04-07T01:24:02.772Z,101346.56
2023-04-07T01:29:31.580Z,101338.22
2023-04-07T01:34:35.974Z,101329.66
2023-04-07T01:39:41.427Z,101341.28
2023-04-07T01:44:46.379Z,101325.78
2023-04-07T01:49:50.132Z,101311.91
2023-04-07T01:54:55.562Z,101333.72
2023-04-07T01:59:58.603Z,101350.09
2023-04-07T02:05:10.234Z,101349.47
2023-04-07T02:10:17.403Z,101344.56
2023-04-07T02:15:20.601Z,101336.19
2023-04-07T02:20:25.150Z,101345.16
2023-04-07T02:25:29.966Z,101333.09
2023-04-07T02:30:34.203Z,101355.56
2023-04-07T02:35:36.635Z,101366.59
2023-04-07T02:40:39.747Z,101344.34
2023-04-07T02:45:42.205Z,101367.00
2023-04-07T02:50:44.624Z,101351.50
2023-04-07T02:55:46.954Z,101370.28
2023-04-07T03:00:50.919Z,101383.97
2023-04-07T03:05:58.287Z,101379.66
2023-04-07T03:11:00.997Z,101397.63
2023-04-07T03:16:05.793Z,101343.75
2023-04-07T03:21:17.710Z,101380.91
2023-04-07T03:26:22.009Z,101387.03
2023-04-07T03:31:25.675Z,101380.09
2023-04-07T03:36:30.188Z,101389.66
2023-04-07T03:41:36.974Z,101389.81
2023-04-07T03:46:40.648Z,101409.81
2023-04-07T03:51:44.377Z,101407.78
2023-04-07T03:56:51.671Z,101397.78
2023-04-07T04:01:59.052Z,101436.19
2023-04-07T04:07:02.330Z,101422.50
2023-04-07T04:12:21.813Z,101439.25
2023-04-07T04:17:38.985Z,101436.41
2023-04-07T04:22:43.758Z,101439.41
2023-04-07T04:27:47.762Z,101434.56
2023-04-07T04:32:55.822Z,101441.84
2023-04-07T04:38:07.801Z,101442.47
2023-04-07T04:43:12.379Z,101434.22
2023-04-07T04:48:18.183Z,101435.50
2023-04-07T04:53:23.421Z,101437.50
2023-04-07T04:58:31.594Z,101426.97
2023-04-07T05:03:35.687Z,101434.19
2023-04-07T05:08:46.474Z,101444.91
2023-04-07T05:13:51.554Z,101428.63
2023-04-07T05:18:55.107Z,101417.09
2023-04-07T05:24:01.070Z,101433.66
2023-04-07T05:29:10.188Z,101444.63
2023-04-07T05:34:14.265Z,101441.75
2023-04-07T05:39:24.244Z,101448.06
2023-04-07T05:44:30.900Z,101440.03
2023-04-07T05:49:36.064Z,101426.28
2023-04-07T05:54:42.462Z,101426.34
2023-04-07T05:59:48.256Z,101417.00
2023-04-07T06:04:52.478Z,101449.16
2023-04-07T06:10:17.337Z,101445.81
2023-04-07T06:15:21.292Z,101437.06
2023-04-07T06:20:26.284Z,101416.88
2023-04-07T06:25:28.720Z,101446.59
2023-04-07T06:30:32.133Z,101450.94
2023-04-07T06:35:36.325Z,101452.13
2023-04-07T06:40:39.236Z,101413.13
2023-04-07T06:45:47.062Z,101449.41
2023-04-07T06:50:53.176Z,101446.19
2023-04-07T06:56:11.651Z,101447.16
2023-04-07T07:01:17.304Z,101436.25
2023-04-07T07:06:21.720Z,101443.03
2023-04-07T07:11:26.526Z,101449.53
2023-04-07T07:16:29.771Z,101396.75
2023-04-07T07:21:32.734Z,101444.38
2023-04-07T07:26:35.041Z,101437.56
2023-04-07T07:31:38.028Z,101422.75
2023-04-07T07:36:41.285Z,101442.31
2023-04-07T07:41:45.824Z,101377.19
2023-04-07T07:46:51.348Z,101443.56
2023-04-07T07:51:54.284Z,101439.53
2023-04-07T07:56:59.091Z,101437.34
2023-04-07T08:02:01.954Z,101436.78
2023-04-07T08:07:05.028Z,101443.19
2023-04-07T08:12:07.953Z,101417.53
2023-04-07T08:17:13.352Z,101411.03
2023-04-07T08:22:16.275Z,101405.31
2023-04-07T08:27:19.174Z,101444.47
2023-04-07T08:32:27.055Z,101370.72
2023-04-07T08:37:30.589Z,101422.63
2023-04-07T08:42:35.003Z,101443.41
2023-04-07T08:47:41.771Z,101421.19
2023-04-07T08:53:01.020Z,101420.41
2023-04-07T08:58:06.155Z,101407.88
2023-04-07T09:03:11.528Z,101445.19
2023-04-07T09:08:16.910Z,101435.75
2023-04-07T09:13:19.803Z,101437.16
2023-04-07T09:18:23.498Z,101427.13
2023-04-07T09:23:33.893Z,101418.75
2023-04-07T09:28:42.382Z,101422.34
2023-04-07T09:33:45.806Z,101414.78
2023-04-07T09:38:49.395Z,101429.06
2023-04-07T09:43:58.918Z,101425.59
2023-04-07T09:49:08.268Z,101422.63
2023-04-07T09:54:12.609Z,101410.78
2023-04-07T09:59:16.824Z,101429.47
2023-04-07T10:04:22.090Z,101429.44
2023-04-07T10:09:29.020Z,101392.09
2023-04-07T10:14:33.738Z,101426.25
2023-04-07T10:19:36.740Z,101416.00
2023-04-07T10:24:59.709Z,101434.63
2023-04-07T10:30:28.777Z,101388.50
2023-04-07T10:36:08.223Z,101360.50
2023-04-07T10:41:34.025Z,101427.69
2023-04-07T10:46:46.234Z,101421.22
2023-04-07T10:52:14.212Z,101421.78
2023-04-07T10:57:18.339Z,101382.66
2023-04-07T11:02:24.445Z,101417.00
2023-04-07T11:07:50.731Z,101414.03
2023-04-07T11:13:04.100Z,101412.72
2023-04-07T11:18:15.777Z,101387.88
2023-04-07T11:23:20.482Z,101422.69
2023-04-07T11:28:24.108Z,101413.78
2023-04-07T11:33:31.461Z,101403.53
2023-04-07T11:38:39.025Z,101394.34
2023-04-07T11:43:42.775Z,101381.38
2023-04-07T11:48:47.676Z,101391.31
2023-04-07T11:53:57.385Z,101382.38
2023-04-07T11:59:00.276Z,101398.81
2023-04-07T12:04:05.312Z,101400.66
2023-04-07T12:09:10.195Z,101391.25
2023-04-07T12:14:16.316Z,101380.13
2023-04-07T12:19:19.349Z,101395.78
2023-04-07T12:24:23.212Z,101401.19
2023-04-07T12:29:26.012Z,101414.97
2023-04-07T12:34:29.172Z,101391.75
2023-04-07T12:39:34.324Z,101379.84
2023-04-07T12:44:41.471Z,101394.72
2023-04-07T12:49:46.372Z,101426.84
2023-04-07T12:54:51.100Z,101401.19
2023-04-07T12:59:54.509Z,101399.56
2023-04-07T13:04:57.410Z,101389.91
2023-04-07T13:10:00.211Z,101389.94
2023-04-07T13:15:02.796Z,101390.97
2023-04-07T13:20:07.885Z,101298.06
2023-04-07T13:25:10.943Z,101408.41
2023-04-07T13:30:15.371Z,101338.72
2023-04-07T13:35:19.532Z,101404.06
2023-04-07T13:40:21.987Z,101390.72
2023-04-07T13:45:25.693Z,101401.03
2023-04-07T13:50:28.752Z,101384.72
2023-04-07T13:55:31.078Z,101420.34
2023-04-07T14:00:35.999Z,101285.88
2023-04-07T14:05:38.899Z,101416.25
2023-04-07T14:10:42.339Z,101425.34
2023-04-07T14:15:46.027Z,101398.34
2023-04-07T14:20:48.904Z,101408.28
2023-04-07T14:25:51.187Z,101394.97
2023-04-07T14:30:55.258Z,101412.50
2023-04-07T14:35:58.140Z,101425.34
2023-04-07T14:46:08.689Z,101415.97
2023-04-07T14:51:13.052Z,101437.47
2023-04-07T14:56:16.688Z,101427.66
2023-04-07T15:01:19.112Z,101401.28
2023-04-07T15:06:21.486Z,101415.41
2023-04-07T15:11:24.199Z,101443.94
2023-04-07T15:16:27.895Z,101440.69
2023-04-07T15:21:31.186Z,101436.88
2023-04-07T15:26:33.619Z,101424.19
2023-04-07T15:31:36.155Z,101458.31
2023-04-07T15:36:39.200Z,101473.78
2023-04-07T15:41:41.827Z,101445.09
2023-04-07T15:46:44.840Z,101463.94
2023-04-07T15:51:47.257Z,101457.09
2023-04-07T15:56:49.608Z,101472.78
2023-04-07T16:01:53.668Z,101493.88
2023-04-07T16:06:56.217Z,101520.84
2023-04-07T16:11:58.496Z,101529.72
2023-04-07T16:17:01.913Z,101473.09
2023-04-07T16:22:05.066Z,101498.66
2023-04-07T16:27:07.369Z,101538.34
2023-04-07T16:32:09.900Z,101539.53
2023-04-07T16:37:12.968Z,101531.41
2023-04-07T16:42:15.619Z,101564.69
2023-04-07T16:47:17.868Z,101562.72
2023-04-07T16:52:21.154Z,101572.81
2023-04-07T16:57:23.473Z,101605.25
2023-04-07T17:02:27.766Z,101577.94
2023-04-07T17:07:30.444Z,101608.97
2023-04-07T17:12:32.748Z,101611.38
2023-04-07T17:17:35.934Z,101520.47
2023-04-07T17:22:38.263Z,101628.16
2023-04-07T17:27:40.971Z,101591.03
2023-04-07T17:32:43.666Z,101615.00
2023-04-07T17:37:46.351Z,101647.41
2023-04-07T17:42:48.854Z,101614.56
2023-04-07T17:47:51.934Z,101636.56
2023-04-07T17:52:54.413Z,101636.13
2023-04-07T17:58:01.245Z,101637.44
2023-04-07T18:03:04.316Z,101629.22
2023-04-07T18:08:07.159Z,101662.75
2023-04-07T18:13:15.300Z,101653.06
2023-04-07T18:18:24.464Z,101598.69
2023-04-07T18:23:27.474Z,101601.81
2023-04-07T18:28:30.677Z,101693.63
2023-04-07T18:33:34.399Z,101625.22
2023-04-07T18:38:42.665Z,101688.00
2023-04-07T18:43:47.722Z,101687.78
2023-04-07T18:48:50.388Z,101641.81
2023-04-07T18:53:52.736Z,101714.47
2023-04-07T18:58:55.156Z,101701.56
2023-04-07T19:03:57.798Z,101704.00
2023-04-07T19:09:00.231Z,101711.56
2023-04-07T19:14:02.657Z,101721.81
2023-04-07T19:19:05.425Z,101700.19
2023-04-07T19:24:07.972Z,101712.84
2023-04-07T19:29:12.686Z,101704.06
2023-04-07T19:34:14.928Z,101725.38
2023-04-07T19:39:17.386Z,101687.41
2023-04-07T19:44:19.899Z,101710.34
2023-04-07T19:49:25.153Z,101701.16
2023-04-07T19:54:28.271Z,101739.66
2023-04-07T19:59:30.943Z,101717.97
2023-04-07T20:04:33.628Z,101710.63
2023-04-07T20:09:37.268Z,101739.72
2023-04-07T20:14:39.675Z,101729.88
2023-04-07T20:19:42.095Z,101764.47
2023-04-07T20:24:45.606Z,101765.09
2023-04-07T20:29:47.945Z,101774.13
2023-04-07T20:34:52.428Z,101748.50
2023-04-07T20:39:55.762Z,101767.75
2023-04-07T20:45:03.980Z,101746.91
2023-04-07T20:50:07.648Z,101782.13
2023-04-07T20:55:12.011Z,101700.50
2023-04-07T21:00:15.707Z,101713.41
2023-04-07T21:05:20.780Z,101782.75
2023-04-07T21:10:23.142Z,101764.56
2023-04-07T21:15:26.200Z,101770.28
2023-04-07T21:20:28.495Z,101775.38
2023-04-07T21:25:31.437Z,101781.13
2023-04-07T21:30:34.438Z,101782.78
2023-04-07T21:35:38.233Z,101766.81
2023-04-07T21:40:40.586Z,101781.34
2023-04-07T21:45:44.182Z,101793.22
2023-04-07T21:50:46.658Z,101767.63
2023-04-07T21:55:49.665Z,101765.13
2023-04-07T22:00:53.760Z,101788.25
2023-04-07T22:06:00.951Z,101767.16
2023-04-07T22:11:03.362Z,101725.63
2023-04-07T22:16:07.120Z,101732.63
2023-04-07T22:21:09.615Z,101721.50
2023-04-07T22:26:12.069Z,101776.72
2023-04-07T22:31:14.503Z,101782.75
2023-04-07T22:36:16.997Z,101780.59
2023-04-07T22:41:19.662Z,101773.28
2023-04-07T22:46:21.917Z,101765.97
2023-04-07T22:51:24.504Z,101778.94
2023-04-07T22:56:27.397Z,101757.56
2023-04-07T23:01:29.756Z,101787.09
2023-04-07T23:06:32.311Z,101749.56
2023-04-07T23:11:34.827Z,101697.88
2023-04-07T23:16:37.358Z,101784.66
2023-04-07T23:21:39.971Z,101763.16
2023-04-07T23:26:42.286Z,101770.41
2023-04-07T23:31:44.667Z,101770.25
2023-04-07T23:36:47.077Z,101791.59
2023-04-07T23:41:49.544Z,101793.16
2023-04-07T23:46:51.857Z,101794.28
2023-04-07T23:51:54.249Z,101764.44
2023-04-07T23:56:57.295Z,101694.50
